Time;durP1;ratioP1;P1;durP2;ratioP2;P2;SDS_P1;SDS_P2;PMS_P1;PMS_P2;Temp;Humidity;BMP_temperature;BMP_pressure;BME280_temperature;BME280_humidity;BME280_pressure;Samples;Min_cycle;Max_cycle;Signal;HPM_P1;HPM_P2
2021/04/21 00:02:18;;;;;;;9.27;5.80;;;15.20;47.80;;;;;;4994757;28;20031;-69
2021/04/21 00:04:46;;;;;;;10.40;5.93;;;15.10;47.70;;;;;;4994995;28;20030;-69
2021/04/21 00:07:23;;;;;;;10.45;5.63;;;15.10;47.80;;;;;;4994812;28;20041;-69
2021/04/21 00:09:53;;;;;;;9.80;5.82;;;15.00;47.70;;;;;;5026457;28;20030;-69
2021/04/21 00:12:20;;;;;;;10.55;5.90;;;15.00;47.70;;;;;;4994356;28;20117;-69
2021/04/21 00:14:50;;;;;;;11.48;5.90;;;15.00;47.70;;;;;;4993283;28;20028;-69
2021/04/21 00:17:19;;;;;;;10.45;6.00;;;15.00;47.80;;;;;;4994771;28;20030;-68
2021/04/21 00:19:46;;;;;;;10.80;6.00;;;15.00;47.80;;;;;;4994600;28;20065;-69
2021/04/21 00:22:16;;;;;;;11.60;6.57;;;15.00;47.80;;;;;;4994616;28;20042;-69
2021/04/21 00:24:45;;;;;;;10.07;5.82;;;15.00;47.90;;;;;;5025639;28;20022;-68
2021/04/21 00:27:13;;;;;;;12.50;6.32;;;14.90;47.90;;;;;;4993378;28;20038;-69
2021/04/21 00:29:44;;;;;;;9.98;6.13;;;14.90;48.00;;;;;;4994557;28;20402;-69
2021/04/21 00:32:12;;;;;;;11.00;6.38;;;14.90;48.00;;;;;;4994510;28;20057;-70
2021/04/21 00:34:39;;;;;;;12.65;6.30;;;14.90;48.00;;;;;;4994119;28;20026;-68
2021/04/21 00:37:07;;;;;;;10.85;6.32;;;14.90;48.00;;;;;;4994268;28;20062;-70
2021/04/21 00:39:35;;;;;;;9.75;5.80;;;14.80;47.90;;;;;;4993702;28;20026;-69
2021/04/21 00:42:11;;;;;;;9.73;6.13;;;14.80;48.00;;;;;;4993624;28;20030;-69
2021/04/21 00:44:54;;;;;;;10.70;6.10;;;14.80;48.00;;;;;;4994369;28;20034;-69
2021/04/21 00:47:50;;;;;;;12.82;6.57;;;14.70;48.00;;;;;;4993095;28;20026;-69
2021/04/21 00:50:30;;;;;;;11.57;6.53;;;14.70;48.10;;;;;;4994068;28;20501;-69
2021/04/21 00:53:02;;;;;;;11.40;6.18;;;14.70;48.10;;;;;;4993869;28;20032;-69
2021/04/21 00:55:36;;;;;;;11.43;6.40;;;14.60;48.10;;;;;;4993523;28;20489;-68
2021/04/21 00:58:20;;;;;;;10.30;6.78;;;14.60;48.20;;;;;;4993700;28;20380;-69
2021/04/21 01:00:47;;;;;;;12.00;6.32;;;14.50;48.20;;;;;;4992390;28;20022;-69
2021/04/21 01:03:18;;;;;;;11.35;6.43;;;14.50;48.30;;;;;;4994118;28;20037;-68
2021/04/21 01:05:57;;;;;;;12.95;6.65;;;14.50;48.30;;;;;;4993869;28;20033;-69
2021/04/21 01:08:29;;;;;;;11.48;6.90;;;14.40;48.30;;;;;;4993750;28;20034;-69
2021/04/21 01:11:19;;;;;;;10.18;5.65;;;14.40;48.40;;;;;;4993151;28;20064;-68
2021/04/21 01:13:49;;;;;;;10.73;6.10;;;14.40;48.40;;;;;;4993619;28;20023;-68
2021/04/21 01:16:18;;;;;;;;;;;14.40;48.40;;;;;;5025689;28;20034;-69
2021/04/21 01:18:45;;;;;;;10.85;6.22;;;14.40;48.50;;;;;;5025115;28;19909;-69
2021/04/21 01:21:20;;;;;;;12.40;6.20;;;14.40;48.40;;;;;;4993321;28;20375;-68
2021/04/21 01:24:14;;;;;;;10.80;6.63;;;14.30;48.40;;;;;;4993268;28;20423;-69
2021/04/21 01:26:55;;;;;;;11.23;6.70;;;14.30;48.50;;;;;;4990160;28;20030;-69
2021/04/21 01:29:35;;;;;;;10.45;5.70;;;14.30;48.60;;;;;;4993718;28;20027;-68
2021/04/21 01:32:12;;;;;;;10.48;6.50;;;14.20;48.50;;;;;;4993436;28;20030;-69
2021/04/21 01:34:42;;;;;;;11.35;6.65;;;14.20;48.60;;;;;;4993265;28;20029;-69
2021/04/21 01:37:11;;;;;;;12.93;6.65;;;14.10;48.60;;;;;;4992000;28;20026;-69
2021/04/21 01:39:46;;;;;;;11.27;6.70;;;14.10;48.70;;;;;;4993042;28;20069;-69
2021/04/21 01:42:15;;;;;;;10.57;6.13;;;14.10;48.80;;;;;;4979692;28;20053;-69
2021/04/21 01:44:45;;;;;;;12.05;6.43;;;14.10;48.70;;;;;;4993191;28;20030;-68
2021/04/21 01:47:16;;;;;;;12.63;7.00;;;14.10;48.80;;;;;;4992967;28;20033;-68
2021/04/21 01:49:54;;;;;;;;;;;14.00;48.80;;;;;;4993605;28;20466;-68
2021/04/21 01:52:38;;;;;;;11.90;6.30;;;14.00;48.80;;;;;;4992017;28;19917;-69
2021/04/21 01:55:16;;;;;;;10.02;6.10;;;13.90;48.80;;;;;;5018327;28;20505;-69
2021/04/21 01:57:51;;;;;;;14.57;7.20;;;13.90;48.80;;;;;;4991252;28;20053;-69
2021/04/21 02:00:23;;;;;;;12.10;6.75;;;13.90;48.80;;;;;;4992814;28;20105;-68
2021/04/21 02:03:03;;;;;;;14.25;6.95;;;13.90;48.90;;;;;;4992672;28;20463;-68
2021/04/21 02:05:52;;;;;;;10.93;7.10;;;13.90;48.90;;;;;;4992645;28;20058;-68
2021/04/21 02:08:29;;;;;;;11.90;6.60;;;13.80;49.00;;;;;;5002008;28;20113;-69
2021/04/21 02:11:11;;;;;;;11.38;6.82;;;13.80;49.10;;;;;;4992181;28;20038;-69
2021/04/21 02:14:02;;;;;;;11.60;7.13;;;13.80;49.20;;;;;;4992475;28;20026;-69
2021/04/21 02:16:40;;;;;;;12.20;7.07;;;13.70;49.10;;;;;;4988268;28;20054;-69
2021/04/21 02:19:38;;;;;;;11.05;6.65;;;13.70;49.20;;;;;;4992397;28;20035;-69
2021/04/21 02:22:21;;;;;;;12.82;7.00;;;13.70;49.20;;;;;;4992462;28;20031;-69
2021/04/21 02:25:01;;;;;;;12.05;6.85;;;13.70;49.20;;;;;;4991161;28;20132;-69
2021/04/21 02:27:34;;;;;;;12.23;6.78;;;13.70;49.20;;;;;;4992457;28;20101;-68
2021/04/21 02:30:29;;;;;;;11.43;7.00;;;13.70;49.20;;;;;;4992014;28;20394;-69
2021/04/21 02:33:08;;;;;;;12.50;6.90;;;13.70;49.20;;;;;;4992002;28;20045;-70
2021/04/21 02:35:51;;;;;;;15.85;7.45;;;13.70;49.10;;;;;;4991774;28;20054;-69
2021/04/21 02:38:39;;;;;;;12.65;6.43;;;13.70;49.10;;;;;;5023695;28;20113;-69
2021/04/21 02:41:06;;;;;;;11.77;6.90;;;13.70;49.10;;;;;;4991076;28;20394;-69
2021/04/21 02:43:50;;;;;;;11.13;7.13;;;13.70;49.20;;;;;;4990996;28;20010;-69
2021/04/21 02:46:42;;;;;;;12.10;6.97;;;13.70;49.10;;;;;;4992325;28;20022;-69
2021/04/21 02:49:33;;;;;;;11.93;7.47;;;13.70;49.20;;;;;;4979948;28;20023;-69
2021/04/21 02:52:31;;;;;;;12.38;7.10;;;13.60;49.10;;;;;;5006719;28;20407;-69
2021/04/21 02:55:15;;;;;;;12.48;7.18;;;13.60;49.20;;;;;;4992261;28;20041;-68
2021/04/21 02:58:14;;;;;;;12.02;6.65;;;13.60;49.30;;;;;;4987635;28;20398;-69
2021/04/21 03:00:51;;;;;;;12.70;6.97;;;13.60;49.30;;;;;;4991074;28;20015;-68
2021/04/21 03:03:29;;;;;;;12.80;6.97;;;13.60;49.60;;;;;;4992418;28;20023;-68
2021/04/21 03:06:07;;;;;;;10.82;6.68;;;13.50;49.30;;;;;;4992268;28;20019;-69
2021/04/21 03:08:49;;;;;;;12.55;7.22;;;13.50;49.30;;;;;;4980325;28;20026;-69
2021/04/21 03:11:23;;;;;;;11.52;7.05;;;13.50;49.30;;;;;;4984331;28;20023;-69
2021/04/21 03:13:56;;;;;;;11.07;6.50;;;13.50;49.30;;;;;;4994937;28;20022;-69
2021/04/21 03:16:24;;;;;;;11.25;6.80;;;13.50;49.40;;;;;;4995733;28;20033;-70
2021/04/21 03:18:51;;;;;;;11.88;7.00;;;13.50;49.50;;;;;;4991189;28;20018;-70
2021/04/21 03:21:24;;;;;;;12.25;7.18;;;13.50;49.40;;;;;;4976455;28;20035;-71
2021/04/21 03:23:57;;;;;;;10.23;6.32;;;13.40;49.40;;;;;;4993111;28;20375;-71
2021/04/21 03:26:25;;;;;;;12.45;7.47;;;13.40;49.40;;;;;;4995805;28;20030;-70
2021/04/21 03:28:57;;;;;;;10.80;6.90;;;13.40;49.40;;;;;;4995050;28;20038;-69
2021/04/21 03:31:25;;;;;;;11.52;6.85;;;13.40;49.60;;;;;;4995596;28;20033;-70
2021/04/21 03:33:57;;;;;;;12.40;6.95;;;13.30;49.50;;;;;;4994975;28;20470;-68
2021/04/21 03:36:24;;;;;;;12.15;6.95;;;13.30;49.60;;;;;;4987685;28;20090;-70
2021/04/21 03:38:51;;;;;;;14.75;7.25;;;13.30;49.70;;;;;;4988380;28;20562;-68
2021/04/21 03:41:18;;;;;;;14.20;7.55;;;13.30;49.80;;;;;;4995470;28;20101;-68
2021/04/21 03:43:45;;;;;;;12.98;7.53;;;13.30;49.80;;;;;;4995107;28;20049;-68
2021/04/21 03:46:12;;;;;;;13.90;7.65;;;13.20;50.80;;;;;;4995269;28;20019;-68
2021/04/21 03:48:40;;;;;;;13.65;7.68;;;13.20;49.90;;;;;;5027005;28;20070;-69
2021/04/21 03:51:07;;;;;;;13.20;7.40;;;13.20;50.00;;;;;;4994984;28;20110;-68
2021/04/21 03:53:36;;;;;;;13.02;7.57;;;13.20;50.00;;;;;;4995241;28;20023;-68
2021/04/21 03:56:05;;;;;;;11.70;7.20;;;13.20;50.10;;;;;;4994939;28;20382;-68
2021/04/21 03:58:32;;;;;;;12.32;7.47;;;13.20;50.00;;;;;;4995070;28;20497;-68
2021/04/21 04:01:23;;;;;;;11.57;7.03;;;13.10;50.00;;;;;;4994901;28;20022;-69
2021/04/21 04:03:55;;;;;;;13.00;6.93;;;13.10;51.00;;;;;;4994792;28;20034;-69
2021/04/21 04:06:51;;;;;;;11.90;7.20;;;13.10;50.10;;;;;;4994923;28;20033;-68
2021/04/21 04:09:22;;;;;;;11.60;7.00;;;13.10;50.20;;;;;;5002437;28;20038;-68
2021/04/21 04:11:55;;;;;;;11.63;7.53;;;13.10;50.30;;;;;;5012059;28;20030;-69
2021/04/21 04:14:21;;;;;;;13.43;7.32;;;13.00;50.20;;;;;;4994734;28;20045;-68
2021/04/21 04:16:52;;;;;;;12.15;7.30;;;13.00;50.20;;;;;;4993041;28;20026;-69
2021/04/21 04:19:18;;;;;;;;;;;13.00;50.30;;;;;;4995462;28;20485;-69
2021/04/21 04:21:55;;;;;;;12.52;7.53;;;13.00;50.30;;;;;;4994325;28;20460;-67
2021/04/21 04:24:23;;;;;;;11.50;7.75;;;12.90;50.30;;;;;;4993332;28;20367;-68
2021/04/21 04:26:49;;;;;;;13.40;8.10;;;13.00;50.40;;;;;;5025680;28;20048;-68
2021/04/21 04:29:15;;;;;;;12.63;7.78;;;13.00;50.40;;;;;;4994089;28;20060;-69
2021/04/21 04:31:41;;;;;;;13.98;7.80;;;13.00;50.50;;;;;;4993625;28;20066;-68
2021/04/21 04:34:09;;;;;;;11.85;7.53;;;12.90;50.40;;;;;;4994443;28;20029;-68
2021/04/21 04:36:38;;;;;;;13.30;7.72;;;12.90;50.50;;;;;;4993839;28;20427;-68
2021/04/21 04:39:06;;;;;;;12.43;7.63;;;12.90;50.60;;;;;;4994092;28;20026;-68
2021/04/21 04:41:33;;;;;;;16.17;9.15;;;12.90;50.60;;;;;;4994248;28;20026;-68
2021/04/21 04:44:01;;;;;;;11.77;7.35;;;12.90;50.60;;;;;;4993657;28;20490;-68
2021/04/21 04:46:30;;;;;;;13.00;8.10;;;12.90;50.60;;;;;;5025708;28;20065;-69
2021/04/21 04:49:07;;;;;;;14.05;7.70;;;12.80;50.70;;;;;;4994022;28;20387;-68
2021/04/21 04:51:36;;;;;;;12.73;8.07;;;12.80;50.70;;;;;;5025082;28;20034;-69
2021/04/21 04:54:06;;;;;;;14.18;7.63;;;12.80;50.70;;;;;;4993247;28;20026;-68
2021/04/21 04:56:35;;;;;;;12.45;7.60;;;12.80;50.80;;;;;;5004349;28;20031;-69
2021/04/21 04:59:03;;;;;;;12.50;7.95;;;12.80;50.80;;;;;;4993004;28;20037;-69
2021/04/21 05:01:44;;;;;;;13.60;7.65;;;12.80;50.90;;;;;;5022036;28;20022;-69
2021/04/21 05:04:13;;;;;;;13.20;7.68;;;12.80;50.90;;;;;;4993006;28;20427;-68
2021/04/21 05:06:48;;;;;;;14.65;9.45;;;12.80;51.00;;;;;;4993038;28;20026;-69
2021/04/21 05:09:17;;;;;;;15.63;9.98;;;12.80;51.00;;;;;;4991452;28;20065;-70
2021/04/21 05:11:46;;;;;;;13.10;8.65;;;12.80;51.10;;;;;;4992742;28;20027;-68
2021/04/21 05:14:16;;;;;;;12.50;7.78;;;12.90;51.10;;;;;;4992866;28;20038;-69
2021/04/21 05:17:00;;;;;;;13.25;8.27;;;12.90;51.20;;;;;;4992695;28;20470;-71
2021/04/21 05:19:45;;;;;;;14.68;8.15;;;13.00;51.20;;;;;;5025059;28;20505;-71
2021/04/21 05:22:26;;;;;;;16.92;11.38;;;13.00;51.10;;;;;;4985047;28;20033;-71
2021/04/21 05:25:29;;;;;;;15.50;8.93;;;13.00;51.10;;;;;;4991858;28;20045;-71
2021/04/21 05:28:21;;;;;;;13.73;8.30;;;13.00;51.00;;;;;;4993100;28;20502;-70
2021/04/21 05:31:06;;;;;;;12.63;8.25;;;13.00;51.00;;;;;;4992977;28;20049;-70
2021/04/21 05:34:06;;;;;;;12.55;7.47;;;12.90;50.90;;;;;;4991609;28;20398;-69
2021/04/21 05:36:41;;;;;;;13.27;7.60;;;12.90;51.10;;;;;;4991235;28;20046;-66
2021/04/21 05:39:22;;;;;;;12.65;7.85;;;12.80;51.30;;;;;;4992271;28;20465;-69
2021/04/21 05:42:06;;;;;;;16.48;8.52;;;12.70;51.40;;;;;;5024338;28;20118;-68
2021/04/21 05:44:54;;;;;;;14.30;7.68;;;12.80;51.50;;;;;;4992358;28;20030;-67
2021/04/21 05:48:07;;;;;;;14.43;8.05;;;12.80;51.50;;;;;;4992628;28;20033;-71
2021/04/21 05:51:03;;;;;;;13.45;7.63;;;12.80;51.60;;;;;;5013224;28;20033;-69
2021/04/21 05:54:01;;;;;;;12.10;7.15;;;12.70;51.70;;;;;;5029395;28;20033;-70
2021/04/21 05:56:39;;;;;;;14.02;7.82;;;12.70;51.90;;;;;;5029175;28;20058;-70
2021/04/21 05:59:10;;;;;;;14.50;8.23;;;12.70;52.00;;;;;;5028108;28;20501;-70
2021/04/21 06:01:43;;;;;;;14.27;8.05;;;12.70;52.20;;;;;;5029550;28;20105;-71
2021/04/21 06:04:09;;;;;;;13.38;8.02;;;12.70;52.20;;;;;;5029506;28;20048;-68
2021/04/21 06:06:35;;;;;;;12.93;7.75;;;12.70;52.30;;;;;;5029447;28;20540;-67
2021/04/21 06:09:09;;;;;;;15.30;8.10;;;12.70;52.30;;;;;;5029255;28;20034;-67
2021/04/21 06:11:36;;;;;;;13.55;7.50;;;12.70;52.30;;;;;;5021604;28;20124;-70
2021/04/21 06:14:05;;;;;;;12.68;7.40;;;12.70;52.40;;;;;;5024212;28;20048;-70
2021/04/21 06:16:34;;;;;;;13.68;7.80;;;12.80;52.40;;;;;;5022542;28;20048;-70
2021/04/21 06:19:04;;;;;;;13.70;7.47;;;12.70;52.30;;;;;;5025047;28;20415;-70
2021/04/21 06:21:37;;;;;;;17.70;9.98;;;12.80;52.40;;;;;;5025254;28;20065;-70
2021/04/21 06:24:18;;;;;;;11.57;6.95;;;12.80;52.40;;;;;;5008932;28;20382;-70
2021/04/21 06:26:44;;;;;;;12.00;7.75;;;12.90;52.30;;;;;;4988614;28;20043;-70
2021/04/21 06:29:11;;;;;;;12.52;7.55;;;13.00;52.20;;;;;;4988517;28;20032;-70
2021/04/21 06:31:45;;;;;;;15.35;8.10;;;13.00;52.10;;;;;;4988724;28;20038;-70
2021/04/21 06:34:13;;;;;;;13.35;7.53;;;13.10;52.10;;;;;;4987058;28;20028;-69
2021/04/21 06:36:42;;;;;;;13.63;7.28;;;13.10;52.00;;;;;;4988407;28;20019;-70
2021/04/21 06:39:09;;;;;;;12.20;7.57;;;13.20;52.00;;;;;;4989489;28;20041;-70
2021/04/21 06:41:36;;;;;;;12.00;7.53;;;13.30;51.90;;;;;;4992498;28;20030;-70
2021/04/21 06:44:02;;;;;;;14.68;7.85;;;13.30;51.80;;;;;;4992264;28;20386;-70
2021/04/21 06:46:29;;;;;;;13.82;7.57;;;13.40;51.80;;;;;;4992198;28;20030;-70
2021/04/21 06:49:00;;;;;;;11.82;7.18;;;13.50;51.70;;;;;;4992344;28;20026;-70
2021/04/21 06:51:28;;;;;;;12.85;7.38;;;13.70;52.50;;;;;;4992003;28;20069;-70
2021/04/21 06:53:55;;;;;;;13.07;8.32;;;13.80;51.40;;;;;;4992160;28;20034;-70
2021/04/21 06:56:31;;;;;;;11.82;7.25;;;13.90;51.10;;;;;;4991935;28;20050;-70
2021/04/21 06:58:58;;;;;;;11.32;7.10;;;14.10;50.90;;;;;;4992444;28;20034;-70
2021/04/21 07:01:26;;;;;;;14.63;8.18;;;14.30;50.70;;;;;;4994111;28;20031;-70
2021/04/21 07:03:54;;;;;;;13.25;8.35;;;14.50;50.30;;;;;;4994016;28;20034;-70
2021/04/21 07:06:22;;;;;;;12.82;8.20;;;14.80;49.90;;;;;;4993519;28;20118;-70
2021/04/21 07:08:48;;;;;;;14.18;8.25;;;15.00;49.50;;;;;;4993980;28;20053;-70
2021/04/21 07:11:14;;;;;;;11.65;7.65;;;15.30;49.10;;;;;;4994239;28;20105;-67
2021/04/21 07:13:42;;;;;;;13.32;8.70;;;15.50;48.90;;;;;;4994369;28;20110;-67
2021/04/21 07:16:16;;;;;;;11.23;7.10;;;15.90;48.10;;;;;;4993565;28;20042;-70
2021/04/21 07:18:48;;;;;;;14.48;7.85;;;16.30;47.60;;;;;;4994087;28;20478;-70
2021/04/21 07:21:16;;;;;;;14.48;8.00;;;16.70;47.00;;;;;;4994976;28;20399;-67
2021/04/21 07:23:47;;;;;;;13.85;7.90;;;17.20;46.20;;;;;;4994470;28;20030;-68
2021/04/21 07:26:14;;;;;;;12.77;7.30;;;17.60;45.50;;;;;;4994794;28;20030;-67
2021/04/21 07:28:40;;;;;;;11.45;7.18;;;18.00;44.50;;;;;;4994530;28;20029;-70
2021/04/21 07:31:16;;;;;;;12.60;6.93;;;18.40;43.70;;;;;;5009172;28;20041;-70
2021/04/21 07:33:44;;;;;;;12.63;7.13;;;18.80;42.90;;;;;;4993606;28;20054;-70
2021/04/21 07:36:14;;;;;;;12.23;6.63;;;19.10;42.10;;;;;;4994636;28;20065;-70
2021/04/21 07:38:49;;;;;;;9.88;6.32;;;19.50;41.70;;;;;;4994005;28;20394;-70
2021/04/21 07:41:35;;;;;;;10.15;6.50;;;19.70;41.20;;;;;;4993815;28;20030;-70
2021/04/21 07:44:02;;;;;;;12.48;7.03;;;20.10;40.60;;;;;;4994608;28;20038;-69
2021/04/21 07:46:29;;;;;;;9.95;5.90;;;20.40;40.30;;;;;;4994145;28;20150;-68
2021/04/21 07:48:56;;;;;;;12.63;8.35;;;20.60;39.70;;;;;;4993825;28;20030;-69
2021/04/21 07:51:24;;;;;;;12.13;7.13;;;20.80;39.20;;;;;;4994639;28;20498;-69
2021/04/21 07:54:06;;;;;;;13.80;6.00;;;21.00;38.90;;;;;;4993773;28;20548;-69
2021/04/21 07:56:54;;;;;;;11.88;5.95;;;21.30;38.50;;;;;;4993569;28;20052;-67
2021/04/21 07:59:26;;;;;;;12.40;8.32;;;21.60;38.10;;;;;;4994193;28;20097;-68
2021/04/21 08:01:53;;;;;;;10.75;6.65;;;21.70;37.50;;;;;;5025500;28;20038;-70
2021/04/21 08:04:25;;;;;;;11.20;6.57;;;22.00;36.60;;;;;;4993381;28;20101;-70
2021/04/21 08:06:59;;;;;;;10.45;6.63;;;22.20;36.30;;;;;;4993948;28;20117;-68
2021/04/21 08:09:33;;;;;;;13.15;7.97;;;22.40;36.00;;;;;;4993286;28;20050;-68
2021/04/21 08:12:09;;;;;;;12.50;8.48;;;22.60;35.40;;;;;;4993743;28;20033;-69
2021/04/21 08:14:41;;;;;;;12.02;7.75;;;22.90;35.00;;;;;;4993601;28;20470;-69
2021/04/21 08:17:07;;;;;;;11.30;7.00;;;23.10;34.30;;;;;;4993290;28;20536;-69
2021/04/21 08:19:39;;;;;;;11.43;7.57;;;23.30;34.10;;;;;;4993758;28;20097;-71
2021/04/21 08:22:07;;;;;;;9.98;6.30;;;23.40;33.80;;;;;;4993223;28;20035;-71
2021/04/21 08:24:45;;;;;;;12.05;7.00;;;23.60;33.50;;;;;;4993468;28;20018;-68
2021/04/21 08:27:14;;;;;;;10.65;5.90;;;23.80;33.10;;;;;;4993380;28;20042;-72
2021/04/21 08:29:41;;;;;;;9.85;5.07;;;23.90;32.90;;;;;;4993538;28;20112;-71
2021/04/21 08:32:10;;;;;;;10.02;5.80;;;24.00;32.90;;;;;;4993151;28;20036;-71
2021/04/21 08:34:36;;;;;;;10.57;6.10;;;24.20;32.40;;;;;;4993650;28;20026;-71
2021/04/21 08:37:02;;;;;;;11.25;6.25;;;24.30;32.00;;;;;;4993079;28;20399;-73
2021/04/21 08:39:28;;;;;;;10.73;7.43;;;24.40;31.70;;;;;;4993250;28;20026;-72
2021/04/21 08:41:59;;;;;;;11.65;6.65;;;24.50;31.30;;;;;;4993198;28;20042;-69
2021/04/21 08:44:32;;;;;;;9.60;5.70;;;24.60;31.30;;;;;;4991793;28;20023;-69
2021/04/21 08:47:00;;;;;;;11.10;6.05;;;24.70;31.30;;;;;;4993768;28;20034;-70
2021/04/21 08:49:30;;;;;;;9.57;5.63;;;24.70;31.50;;;;;;4992376;28;20022;-69
2021/04/21 08:51:59;;;;;;;9.98;5.30;;;24.80;31.40;;;;;;4993105;28;20471;-69
2021/04/21 08:54:27;;;;;;;13.07;8.48;;;24.90;31.20;;;;;;4992642;28;20030;-69
2021/04/21 08:56:54;;;;;;;11.70;7.45;;;25.00;30.00;;;;;;4992174;28;20042;-69
2021/04/21 08:59:21;;;;;;;9.88;5.82;;;25.20;29.60;;;;;;5024176;28;20022;-69
2021/04/21 09:01:47;;;;;;;12.48;6.10;;;25.20;30.00;;;;;;4992053;28;20027;-68
2021/04/21 09:04:15;;;;;;;9.88;5.63;;;25.30;29.90;;;;;;4992623;28;20030;-68
2021/04/21 09:06:43;;;;;;;16.02;9.50;;;25.40;30.00;;;;;;4992032;28;20027;-68
2021/04/21 09:09:09;;;;;;;14.55;8.55;;;25.40;28.70;;;;;;4991815;28;20077;-68
2021/04/21 09:11:36;;;;;;;13.70;7.50;;;25.50;28.90;;;;;;4992794;28;20041;-68
2021/04/21 09:14:03;;;;;;;13.02;7.45;;;25.60;29.10;;;;;;4992660;28;20046;-68
2021/04/21 09:16:29;;;;;;;11.77;7.40;;;25.60;29.30;;;;;;4992570;28;20410;-72
2021/04/21 09:18:56;;;;;;;12.25;6.95;;;25.60;29.10;;;;;;4992708;28;20486;-69
2021/04/21 09:21:33;;;;;;;11.73;6.63;;;25.70;29.10;;;;;;4992270;28;20022;-69
2021/04/21 09:23:59;;;;;;;14.02;8.02;;;25.70;29.20;;;;;;4986548;28;20057;-68
2021/04/21 09:26:31;;;;;;;15.88;9.65;;;25.70;28.10;;;;;;4992479;28;20106;-70
2021/04/21 09:28:58;;;;;;;16.17;9.65;;;25.60;27.50;;;;;;4992239;28;20042;-72
2021/04/21 09:31:27;;;;;;;14.57;8.10;;;25.50;27.90;;;;;;4991718;28;20033;-69
2021/04/21 09:34:16;;;;;;;16.23;10.27;;;25.50;28.40;;;;;;5018744;28;20043;-68
2021/04/21 09:36:47;;;;;;;15.32;9.90;;;25.40;28.10;;;;;;4991669;28;20057;-68
2021/04/21 09:39:18;;;;;;;14.73;9.23;;;25.40;28.40;;;;;;4991807;28;20105;-72
2021/04/21 09:41:46;;;;;;;11.80;7.88;;;25.50;28.60;;;;;;4991730;28;20397;-72
2021/04/21 09:44:21;;;;;;;12.93;8.27;;;25.60;29.00;;;;;;4991537;28;20042;-72
2021/04/21 09:46:48;;;;;;;13.55;6.93;;;25.90;29.10;;;;;;4990908;28;20105;-72
2021/04/21 09:49:32;;;;;;;15.82;9.77;;;26.20;28.80;;;;;;4991849;28;20709;-69
2021/04/21 09:52:11;;;;;;;12.02;7.32;;;26.30;27.40;;;;;;4991436;28;20035;-69
2021/04/21 09:54:44;;;;;;;15.35;10.00;;;26.30;27.90;;;;;;4990337;28;20023;-71
2021/04/21 09:57:13;;;;;;;14.38;10.18;;;26.40;27.70;;;;;;4991401;28;20042;-68
2021/04/21 09:59:41;;;;;;;14.68;9.85;;;26.20;27.00;;;;;;4991978;28;20542;-68
2021/04/21 10:02:34;;;;;;;12.80;7.72;;;26.00;27.20;;;;;;5023571;28;20045;-69
2021/04/21 10:05:30;;;;;;;14.18;9.43;;;26.00;27.90;;;;;;4978933;28;20117;-74
2021/04/21 10:08:16;;;;;;;14.05;8.60;;;25.80;27.30;;;;;;4988220;28;20034;-69
2021/04/21 10:10:47;;;;;;;13.57;7.78;;;25.40;27.40;;;;;;4989083;28;20125;-69
2021/04/21 10:13:19;;;;;;;14.05;7.68;;;25.00;27.70;;;;;;4987466;28;20044;-70
2021/04/21 10:15:48;;;;;;;12.13;7.55;;;24.80;28.40;;;;;;4988111;28;20451;-69
2021/04/21 10:18:15;;;;;;;13.80;8.23;;;24.60;28.50;;;;;;4986983;28;20153;-69
2021/04/21 10:20:43;;;;;;;14.73;8.20;;;24.50;28.80;;;;;;4986847;28;20026;-69
2021/04/21 10:23:13;;;;;;;12.27;6.95;;;24.40;29.10;;;;;;4987687;28;20070;-71
2021/04/21 10:25:41;;;;;;;12.50;7.38;;;24.50;29.80;;;;;;4987448;28;20037;-72
2021/04/21 10:28:08;;;;;;;13.40;7.47;;;24.40;29.60;;;;;;4987778;28;20058;-69
2021/04/21 10:30:36;;;;;;;13.60;7.65;;;24.40;29.80;;;;;;4987588;28;20499;-69
2021/04/21 10:33:03;;;;;;;13.48;7.75;;;24.40;29.20;;;;;;4982247;28;20042;-68
2021/04/21 10:35:30;;;;;;;13.80;7.20;;;24.20;28.70;;;;;;4987612;28;20394;-69
2021/04/21 10:37:57;;;;;;;12.95;6.70;;;24.10;29.30;;;;;;4986030;28;20030;-72
2021/04/21 10:40:29;;;;;;;15.45;9.05;;;24.10;29.60;;;;;;4988224;28;20466;-72
2021/04/21 10:43:02;;;;;;;13.80;8.18;;;24.00;29.00;;;;;;4988383;28;20038;-71
2021/04/21 10:45:30;;;;;;;15.45;8.23;;;23.70;29.10;;;;;;4988537;28;20088;-72
2021/04/21 10:47:58;;;;;;;14.68;8.00;;;23.40;28.80;;;;;;4976618;28;20049;-69
2021/04/21 10:50:43;;;;;;;15.18;8.13;;;22.90;28.30;;;;;;5019002;28;20115;-69
2021/04/21 10:53:29;;;;;;;13.85;7.65;;;22.50;29.10;;;;;;4984077;28;20039;-69
2021/04/21 10:55:55;;;;;;;11.88;6.80;;;22.30;29.10;;;;;;4985566;28;20019;-69
2021/04/21 10:58:22;;;;;;;15.32;6.88;;;22.10;29.50;;;;;;4987376;28;20065;-69
2021/04/21 11:00:50;;;;;;;13.15;6.72;;;22.10;29.20;;;;;;4987433;28;20474;-69
2021/04/21 11:03:26;;;;;;;11.77;6.20;;;21.90;28.70;;;;;;4987524;28;20034;-71
2021/04/21 11:05:59;;;;;;;13.75;7.90;;;21.60;29.00;;;;;;4987590;28;20127;-72
2021/04/21 11:08:30;;;;;;;13.18;6.90;;;21.20;29.80;;;;;;4987471;28;20041;-71
2021/04/21 11:11:03;;;;;;;12.05;6.45;;;21.10;30.30;;;;;;4987558;28;20038;-70
2021/04/21 11:13:36;;;;;;;14.65;6.82;;;21.10;31.10;;;;;;4987305;28;20030;-68
2021/04/21 11:16:23;;;;;;;13.13;6.07;;;21.20;31.20;;;;;;4987584;28;20096;-68
2021/04/21 11:18:49;;;;;;;11.32;6.15;;;21.50;30.60;;;;;;4987905;28;20042;-68
2021/04/21 11:21:20;;;;;;;14.18;6.78;;;21.50;29.50;;;;;;4987462;28;20294;-68
2021/04/21 11:24:02;;;;;;;13.20;6.40;;;21.40;29.60;;;;;;4985898;28;20148;-71
2021/04/21 11:26:30;;;;;;;13.05;7.70;;;21.30;30.10;;;;;;4990399;28;20034;-71
2021/04/21 11:29:27;;;;;;;14.38;7.45;;;21.20;30.30;;;;;;4991804;28;20042;-71
2021/04/21 11:31:53;;;;;;;13.10;6.55;;;21.00;30.40;;;;;;4990843;28;20031;-71
2021/04/21 11:34:37;;;;;;;11.77;6.10;;;20.60;29.70;;;;;;4989652;28;20042;-72
2021/04/21 11:37:14;;;;;;;11.32;6.57;;;20.30;30.00;;;;;;5022245;28;20064;-68
2021/04/21 11:39:40;;;;;;;9.57;5.55;;;20.00;30.90;;;;;;4991253;28;20030;-71
2021/04/21 11:42:19;;;;;;;11.27;6.93;;;19.80;31.40;;;;;;5021840;28;20517;-71
2021/04/21 11:45:16;;;;;;;12.05;6.35;;;19.60;31.80;;;;;;4990925;28;20038;-69
2021/04/21 11:48:01;;;;;;;9.85;6.00;;;19.50;32.30;;;;;;4990741;28;20022;-69
2021/04/21 11:50:37;;;;;;;12.20;5.32;;;19.40;32.20;;;;;;4990775;28;20458;-71
2021/04/21 11:53:10;;;;;;;9.63;5.20;;;19.40;32.20;;;;;;4990581;28;20149;-71
2021/04/21 11:55:39;;;;;;;10.80;4.93;;;19.40;32.50;;;;;;4990650;28;20036;-71
2021/04/21 11:58:18;;;;;;;7.35;3.85;;;19.40;32.70;;;;;;4990774;28;20038;-69
2021/04/21 12:00:46;;;;;;;11.07;6.05;;;19.40;32.70;;;;;;4990333;28;20030;-71
2021/04/21 12:03:18;;;;;;;12.43;6.55;;;19.50;32.40;;;;;;4978891;28;20608;-70
2021/04/21 12:05:46;;;;;;;12.60;6.95;;;19.40;32.50;;;;;;4989090;28;20034;-71
2021/04/21 12:08:16;;;;;;;14.57;7.10;;;19.20;32.80;;;;;;4988373;28;20037;-70
2021/04/21 12:10:43;;;;;;;11.40;6.45;;;19.10;33.40;;;;;;4990978;28;20038;-70
2021/04/21 12:13:22;;;;;;;11.43;6.10;;;19.00;33.90;;;;;;4990224;28;20037;-69
2021/04/21 12:16:14;;;;;;;10.65;5.75;;;18.90;34.30;;;;;;4989911;28;20026;-69
2021/04/21 12:18:45;;;;;;;11.55;5.90;;;18.90;34.40;;;;;;4990351;28;20469;-69
2021/04/21 12:21:14;;;;;;;11.95;5.57;;;18.80;34.20;;;;;;4990147;28;20109;-71
2021/04/21 12:23:41;;;;;;;10.75;5.40;;;18.80;34.20;;;;;;4990132;28;20308;-71
2021/04/21 12:26:26;;;;;;;11.25;5.70;;;18.80;34.30;;;;;;4990126;28;20458;-71
2021/04/21 12:29:02;;;;;;;10.43;4.80;;;18.80;34.60;;;;;;4990206;28;20026;-69
2021/04/21 12:31:30;;;;;;;8.52;4.25;;;18.90;34.60;;;;;;4988234;28;20045;-68
2021/04/21 12:33:59;;;;;;;11.07;5.50;;;19.00;34.50;;;;;;4990035;28;20023;-68
2021/04/21 12:36:36;;;;;;;17.35;11.40;;;19.00;33.80;;;;;;4987919;28;20494;-69
2021/04/21 12:39:03;;;;;;;14.50;9.10;;;19.00;34.30;;;;;;4989554;28;20027;-68
2021/04/21 12:41:29;;;;;;;12.48;6.20;;;19.10;33.90;;;;;;4990357;28;20080;-68
2021/04/21 12:43:55;;;;;;;9.73;5.45;;;19.20;33.50;;;;;;4990636;28;20042;-68
2021/04/21 12:46:23;;;;;;;10.93;5.72;;;19.30;33.40;;;;;;4989883;28;20122;-69
2021/04/21 12:48:55;;;;;;;12.38;5.72;;;19.50;33.20;;;;;;4990002;28;20041;-68
2021/04/21 12:51:21;;;;;;;12.93;5.80;;;19.50;33.00;;;;;;4989724;28;20041;-68
2021/04/21 12:53:48;;;;;;;10.70;5.07;;;19.50;33.00;;;;;;4989410;28;20037;-69
2021/04/21 12:56:15;;;;;;;10.05;5.00;;;19.40;31.60;;;;;;4988820;28;20042;-69
2021/04/21 12:58:44;;;;;;;8.93;4.70;;;19.40;31.90;;;;;;4988110;28;20034;-68
2021/04/21 13:01:13;;;;;;;10.63;4.80;;;19.40;31.80;;;;;;5020459;28;20081;-68
2021/04/21 13:04:14;;;;;;;10.50;4.53;;;19.40;31.30;;;;;;4990131;28;20034;-69
2021/04/21 13:06:49;;;;;;;8.65;4.30;;;19.40;31.60;;;;;;4979033;28;20045;-69
2021/04/21 13:09:18;;;;;;;10.35;5.05;;;19.40;31.70;;;;;;4989619;28;20030;-71
2021/04/21 13:11:46;;;;;;;10.45;5.32;;;19.40;31.50;;;;;;4989335;28;20037;-71